Time;durP1;ratioP1;P1;durP2;ratioP2;P2;SDS_P1;SDS_P2;PMS_P1;PMS_P2;Temp;Humidity;BMP_temperature;BMP_pressure;BME280_temperature;BME280_humidity;BME280_pressure;Samples;Min_cycle;Max_cycle;Signal;HPM_P1;HPM_P2
2023/03/30 00:02:29;;;;;;;17.63;14.23;;;10.70;99.90;;;;;;4936489;28;94809;-33
2023/03/30 00:04:55;;;;;;;15.20;12.38;;;10.70;99.90;;;;;;4936680;28;92226;-32
2023/03/30 00:07:21;;;;;;;16.52;12.70;;;10.80;99.90;;;;;;4937648;28;95932;-32
2023/03/30 00:09:47;;;;;;;16.33;12.25;;;10.80;99.90;;;;;;4939624;28;96423;-34
2023/03/30 00:12:19;;;;;;;17.45;13.10;;;10.80;99.90;;;;;;4940044;28;94325;-32
2023/03/30 00:14:45;;;;;;;13.10;11.45;;;10.80;99.90;;;;;;4940031;28;93953;-32
2023/03/30 00:17:11;;;;;;;18.30;13.02;;;10.80;99.90;;;;;;4939204;28;95075;-35
2023/03/30 00:19:37;;;;;;;15.40;12.90;;;10.90;99.90;;;;;;4939880;28;94921;-33
2023/03/30 00:22:08;;;;;;;21.48;13.13;;;10.90;99.90;;;;;;4939322;28;94425;-33
2023/03/30 00:24:34;;;;;;;17.17;12.63;;;10.90;99.90;;;;;;4940546;28;92117;-31
2023/03/30 00:27:00;;;;;;;13.50;10.68;;;10.90;99.90;;;;;;4938608;28;94346;-31
2023/03/30 00:29:26;;;;;;;11.43;9.68;;;10.90;99.90;;;;;;4940159;28;93977;-33
2023/03/30 00:31:52;;;;;;;14.02;11.93;;;10.90;99.90;;;;;;4939716;28;94177;-32
2023/03/30 00:34:17;;;;;;;13.40;10.27;;;10.90;99.90;;;;;;4939770;28;92879;-31
2023/03/30 00:36:45;;;;;;;15.50;10.52;;;10.90;99.90;;;;;;4938929;28;94734;-31
2023/03/30 00:39:11;;;;;;;16.13;11.33;;;11.00;99.90;;;;;;4939265;28;96631;-33
2023/03/30 00:41:37;;;;;;;11.15;9.85;;;11.00;99.90;;;;;;4940028;28;92715;-34
2023/03/30 00:44:06;;;;;;;14.40;10.43;;;11.00;99.90;;;;;;4939987;28;94291;-33
2023/03/30 00:46:31;;;;;;;10.68;9.57;;;10.90;99.90;;;;;;4939356;28;95108;-34
2023/03/30 00:49:03;;;;;;;12.23;8.75;;;10.90;99.90;;;;;;4939996;28;93928;-30
2023/03/30 00:51:33;;;;;;;15.85;9.90;;;10.90;99.90;;;;;;4939953;28;93851;-36
2023/03/30 00:54:06;;;;;;;11.25;8.88;;;10.90;99.90;;;;;;4939219;28;93617;-35
2023/03/30 00:56:33;;;;;;;9.55;8.55;;;11.00;99.90;;;;;;4939599;28;95396;-32
2023/03/30 00:59:00;;;;;;;9.15;8.05;;;11.00;99.90;;;;;;4938960;28;95504;-34
2023/03/30 01:01:27;;;;;;;12.13;8.35;;;11.00;99.90;;;;;;4939986;28;92111;-32
2023/03/30 01:03:58;;;;;;;11.05;7.93;;;11.00;99.90;;;;;;4939695;28;94095;-36
2023/03/30 01:06:25;;;;;;;9.13;7.63;;;10.90;99.90;;;;;;4939562;28;93742;-31
2023/03/30 01:08:54;;;;;;;10.63;7.60;;;10.90;99.90;;;;;;4939909;28;94999;-31
2023/03/30 01:11:21;;;;;;;8.50;7.32;;;11.00;99.90;;;;;;4940070;28;92130;-34
2023/03/30 01:13:50;;;;;;;7.32;6.63;;;11.00;99.90;;;;;;4939643;28;91448;-32
2023/03/30 01:16:34;;;;;;;11.02;7.40;;;11.10;99.90;;;;;;4938812;28;96156;-35
2023/03/30 01:19:34;;;;;;;16.13;8.63;;;11.10;99.90;;;;;;4939020;28;94194;-35
2023/03/30 01:22:30;;;;;;;10.50;6.97;;;11.00;99.90;;;;;;4938789;28;94980;-33
2023/03/30 01:25:17;;;;;;;10.88;7.18;;;11.10;99.90;;;;;;4939213;28;94845;-36
2023/03/30 01:28:01;;;;;;;8.68;5.88;;;11.10;99.90;;;;;;4938893;28;94282;-35
2023/03/30 01:30:38;;;;;;;8.40;5.57;;;11.20;99.90;;;;;;4938602;28;94519;-34
2023/03/30 01:33:33;;;;;;;10.57;6.40;;;11.20;99.90;;;;;;4939447;28;94517;-33
2023/03/30 01:36:39;;;;;;;11.48;6.30;;;11.20;99.90;;;;;;4939099;28;93024;-36
2023/03/30 01:39:27;;;;;;;9.10;6.30;;;11.30;99.90;;;;;;4923357;28;95118;-33
2023/03/30 01:42:09;;;;;;;9.05;6.97;;;11.30;99.90;;;;;;4938988;28;94343;-32
2023/03/30 01:45:09;;;;;;;9.65;6.70;;;11.30;99.90;;;;;;4939486;28;93841;-31
2023/03/30 01:47:59;;;;;;;7.18;5.18;;;11.30;99.90;;;;;;4939068;28;93434;-31
2023/03/30 01:50:41;;;;;;;9.48;6.28;;;11.30;99.90;;;;;;4937977;28;95227;-32
2023/03/30 01:53:20;;;;;;;9.02;7.25;;;11.30;99.90;;;;;;4939179;28;94920;-35
2023/03/30 01:55:54;;;;;;;10.00;6.85;;;11.30;99.90;;;;;;4939581;28;94888;-34
2023/03/30 01:58:38;;;;;;;6.35;5.00;;;11.30;99.90;;;;;;4938533;28;92575;-33
2023/03/30 02:01:05;;;;;;;6.82;5.60;;;11.30;99.90;;;;;;4938796;28;93592;-34
2023/03/30 02:03:36;;;;;;;9.33;6.73;;;11.30;99.90;;;;;;4939106;28;94596;-30
2023/03/30 02:06:09;;;;;;;7.47;6.25;;;11.30;99.90;;;;;;4939241;28;94262;-31
2023/03/30 02:08:37;;;;;;;7.50;6.05;;;11.30;99.90;;;;;;4938989;28;93718;-35
2023/03/30 02:11:03;;;;;;;11.33;6.13;;;11.30;99.90;;;;;;4938534;28;94867;-32
2023/03/30 02:13:31;;;;;;;13.50;6.68;;;11.40;99.90;;;;;;4938217;28;94363;-33
2023/03/30 02:16:15;;;;;;;7.22;5.68;;;11.40;99.90;;;;;;4937874;28;94281;-32
2023/03/30 02:18:40;;;;;;;10.90;6.35;;;11.40;99.90;;;;;;4939127;28;92187;-32
2023/03/30 02:21:07;;;;;;;6.50;5.60;;;11.30;99.90;;;;;;4938199;28;96426;-33
2023/03/30 02:23:39;;;;;;;9.63;6.50;;;11.40;99.90;;;;;;4938149;28;94258;-35
2023/03/30 02:26:07;;;;;;;12.40;6.35;;;11.40;99.90;;;;;;4938424;28;93403;-33
2023/03/30 02:28:33;;;;;;;7.00;5.20;;;11.40;99.90;;;;;;4938267;28;94731;-32
2023/03/30 02:30:59;;;;;;;6.43;5.68;;;11.50;99.90;;;;;;4937798;28;94461;-34
2023/03/30 02:33:42;;;;;;;6.43;5.13;;;11.60;99.90;;;;;;4938712;28;96516;-32
2023/03/30 02:36:31;;;;;;;7.40;5.72;;;11.60;99.90;;;;;;4939106;28;94390;-32
2023/03/30 02:39:12;;;;;;;6.22;5.30;;;11.50;99.90;;;;;;4938199;28;94519;-34
2023/03/30 02:41:46;;;;;;;7.70;5.32;;;11.50;99.90;;;;;;4936771;28;96259;-31
2023/03/30 02:44:26;;;;;;;8.52;6.82;;;11.50;99.90;;;;;;4938399;28;96065;-34
2023/03/30 02:46:51;;;;;;;7.20;6.18;;;11.60;99.90;;;;;;4938651;28;92127;-31
2023/03/30 02:49:45;;;;;;;7.32;5.47;;;11.70;99.90;;;;;;4937654;28;92648;-35
2023/03/30 02:52:22;;;;;;;7.50;5.88;;;11.70;99.90;;;;;;4937996;28;94873;-31
2023/03/30 02:54:56;;;;;;;6.75;4.85;;;11.80;99.90;;;;;;4937749;28;94486;-31
2023/03/30 02:57:22;;;;;;;14.40;6.55;;;11.70;99.90;;;;;;4938343;28;93742;-32
2023/03/30 02:59:50;;;;;;;7.63;5.10;;;11.80;99.90;;;;;;4938094;28;92535;-34
2023/03/30 03:02:21;;;;;;;8.30;5.63;;;11.90;99.90;;;;;;4938087;28;94894;-30
2023/03/30 03:04:48;;;;;;;5.60;4.70;;;11.80;99.90;;;;;;4937661;28;94349;-30
2023/03/30 03:07:15;;;;;;;7.10;4.82;;;11.90;99.90;;;;;;4937856;28;94050;-32
2023/03/30 03:09:41;;;;;;;7.28;4.13;;;11.80;99.90;;;;;;4937559;28;93223;-33
2023/03/30 03:12:06;;;;;;;9.60;5.18;;;11.80;99.90;;;;;;4937491;28;94892;-33
2023/03/30 03:14:32;;;;;;;7.15;5.57;;;11.70;99.90;;;;;;4937445;28;94233;-32
2023/03/30 03:16:58;;;;;;;12.57;5.68;;;11.70;99.90;;;;;;4938142;28;93412;-33
2023/03/30 03:19:24;;;;;;;9.02;5.82;;;11.60;99.90;;;;;;4937527;28;93358;-32
2023/03/30 03:21:50;;;;;;;6.85;5.10;;;11.60;99.90;;;;;;4936826;28;94287;-33
2023/03/30 03:24:17;;;;;;;5.68;5.00;;;11.60;99.90;;;;;;4938219;28;94142;-31
2023/03/30 03:26:44;;;;;;;6.57;5.93;;;11.70;99.90;;;;;;4937722;28;94601;-31
2023/03/30 03:29:10;;;;;;;6.75;5.68;;;11.60;99.90;;;;;;4935877;28;92190;-30
2023/03/30 03:31:35;;;;;;;4.75;4.32;;;11.60;99.90;;;;;;4937035;28;95889;-32
2023/03/30 03:34:01;;;;;;;8.98;5.07;;;11.60;99.90;;;;;;4936981;28;93567;-32
2023/03/30 03:36:27;;;;;;;8.02;6.07;;;11.50;99.90;;;;;;4937701;28;92818;-32
2023/03/30 03:38:53;;;;;;;11.93;5.88;;;11.50;99.90;;;;;;4937719;28;94343;-33
2023/03/30 03:41:19;;;;;;;6.97;5.22;;;11.50;99.90;;;;;;4936716;28;95216;-32
2023/03/30 03:43:45;;;;;;;6.72;5.25;;;11.50;99.90;;;;;;4937279;28;93930;-34
2023/03/30 03:46:11;;;;;;;5.10;4.60;;;11.50;99.90;;;;;;4937040;28;93981;-35
2023/03/30 03:48:38;;;;;;;7.32;4.65;;;11.60;99.90;;;;;;4937744;28;91851;-34
2023/03/30 03:51:04;;;;;;;9.07;5.00;;;11.50;99.90;;;;;;4937578;28;95229;-35
2023/03/30 03:53:30;;;;;;;8.30;5.53;;;11.50;99.90;;;;;;4936929;28;94536;-33
2023/03/30 03:55:56;;;;;;;5.28;4.25;;;11.60;99.90;;;;;;4936682;28;95774;-35
2023/03/30 03:58:23;;;;;;;7.78;5.03;;;11.50;99.90;;;;;;4937179;28;94631;-29
2023/03/30 04:00:48;;;;;;;11.32;4.88;;;11.50;99.90;;;;;;4936859;28;94446;-35
2023/03/30 04:03:14;;;;;;;12.02;4.95;;;11.60;99.90;;;;;;4938191;28;95156;-34
2023/03/30 04:05:40;;;;;;;7.93;4.38;;;11.70;99.90;;;;;;4937170;28;93709;-33
2023/03/30 04:08:09;;;;;;;9.20;4.85;;;11.70;99.90;;;;;;4936883;28;94687;-32
2023/03/30 04:10:38;;;;;;;5.22;3.80;;;11.90;99.90;;;;;;4937362;28;94941;-36
2023/03/30 04:13:04;;;;;;;4.10;3.67;;;12.00;99.90;;;;;;4937909;28;94051;-36
2023/03/30 04:15:30;;;;;;;6.82;4.18;;;12.00;99.90;;;;;;4937603;28;94372;-33
2023/03/30 04:17:58;;;;;;;9.85;3.72;;;12.00;99.90;;;;;;4935907;28;93354;-34
2023/03/30 04:20:28;;;;;;;5.40;3.38;;;12.00;99.90;;;;;;4936775;28;95744;-33
2023/03/30 04:22:54;;;;;;;4.32;3.50;;;12.10;99.90;;;;;;4936701;28;95157;-33
2023/03/30 04:25:24;;;;;;;10.40;4.75;;;12.00;99.90;;;;;;4938422;28;92715;-31
2023/03/30 04:27:51;;;;;;;6.93;4.03;;;12.10;99.90;;;;;;4936849;28;94046;-32
2023/03/30 04:30:18;;;;;;;7.78;4.88;;;12.00;99.90;;;;;;4936499;28;94776;-36
2023/03/30 04:32:45;;;;;;;9.55;4.50;;;12.00;99.90;;;;;;4936542;28;94819;-31
2023/03/30 04:35:13;;;;;;;5.63;4.43;;;12.00;99.90;;;;;;4937525;28;93556;-33
2023/03/30 04:37:40;;;;;;;3.88;3.58;;;12.10;99.90;;;;;;4937653;28;91460;-31
2023/03/30 04:40:11;;;;;;;5.75;4.00;;;12.00;99.90;;;;;;4936694;28;94595;-33
2023/03/30 04:42:38;;;;;;;5.45;3.75;;;12.00;99.90;;;;;;4935284;28;94685;-31
2023/03/30 04:45:07;;;;;;;6.57;4.13;;;12.00;99.90;;;;;;4936257;28;94226;-32
2023/03/30 04:47:34;;;;;;;10.65;5.60;;;12.00;99.90;;;;;;4936358;28;93087;-31
2023/03/30 04:50:03;;;;;;;10.15;5.75;;;12.00;99.90;;;;;;4937205;28;94112;-33
2023/03/30 04:52:28;;;;;;;9.18;4.53;;;11.90;99.90;;;;;;4936947;28;93526;-34
2023/03/30 04:54:54;;;;;;;5.35;4.20;;;11.80;99.90;;;;;;4940097;28;93435;-32
2023/03/30 04:57:20;;;;;;;6.93;4.30;;;11.70;99.90;;;;;;4939443;28;93231;-31
2023/03/30 04:59:46;;;;;;;7.20;4.90;;;11.70;99.90;;;;;;4940220;28;94739;-34
2023/03/30 05:02:12;;;;;;;5.15;4.65;;;11.60;99.90;;;;;;4939972;28;94584;-33
2023/03/30 05:04:38;;;;;;;12.65;4.60;;;11.60;99.90;;;;;;4940357;28;94116;-32
2023/03/30 05:07:05;;;;;;;8.10;4.88;;;11.60;99.90;;;;;;4939903;28;94590;-34
2023/03/30 05:09:31;;;;;;;6.88;5.60;;;11.50;99.90;;;;;;4938884;28;95881;-33
2023/03/30 05:11:57;;;;;;;7.80;5.13;;;11.50;99.90;;;;;;4939704;28;95682;-31
2023/03/30 05:14:23;;;;;;;5.75;4.38;;;11.50;99.90;;;;;;4939871;28;93510;-35
2023/03/30 05:16:49;;;;;;;6.10;4.03;;;11.50;99.90;;;;;;4939350;28;93333;-34
2023/03/30 05:19:14;;;;;;;7.28;5.32;;;11.50;99.90;;;;;;4939661;28;94658;-32
2023/03/30 05:21:40;;;;;;;5.35;4.47;;;11.60;99.90;;;;;;4938313;28;94499;-33
2023/03/30 05:24:06;;;;;;;6.00;4.30;;;11.50;99.90;;;;;;4940361;28;94489;-30
2023/03/30 05:26:32;;;;;;;4.22;3.80;;;11.50;99.90;;;;;;4939488;28;92342;-33
2023/03/30 05:28:58;;;;;;;7.22;4.63;;;11.60;99.90;;;;;;4939471;28;94501;-35
2023/03/30 05:31:24;;;;;;;6.55;3.75;;;11.60;99.90;;;;;;4939177;28;94644;-32
2023/03/30 05:33:51;;;;;;;15.10;4.75;;;11.60;99.90;;;;;;4938981;28;94949;-32
2023/03/30 05:36:17;;;;;;;14.63;5.10;;;11.60;99.90;;;;;;4939746;28;93410;-35
2023/03/30 05:38:43;;;;;;;5.22;4.22;;;11.60;99.90;;;;;;4938642;28;94748;-35
2023/03/30 05:41:08;;;;;;;6.20;4.68;;;11.60;99.90;;;;;;4938952;28;95312;-36
2023/03/30 05:43:35;;;;;;;8.40;5.35;;;11.60;99.90;;;;;;4940034;28;93804;-32
2023/03/30 05:46:02;;;;;;;10.30;5.95;;;11.60;99.90;;;;;;4938645;28;93369;-32
2023/03/30 05:48:28;;;;;;;14.45;4.43;;;11.60;99.90;;;;;;4939403;28;95095;-33
2023/03/30 05:50:54;;;;;;;10.27;4.75;;;11.50;99.90;;;;;;4939301;28;94757;-31
2023/03/30 05:53:20;;;;;;;7.45;5.30;;;11.50;99.90;;;;;;4938922;28;93533;-35
2023/03/30 05:55:46;;;;;;;7.65;4.00;;;11.50;99.90;;;;;;4939143;28;92890;-31
2023/03/30 05:58:13;;;;;;;7.25;4.43;;;11.50;99.90;;;;;;4937870;28;95795;-32
2023/03/30 06:00:40;;;;;;;5.95;4.32;;;11.50;99.90;;;;;;4930167;28;93440;-33
2023/03/30 06:03:10;;;;;;;6.32;4.90;;;11.50;99.90;;;;;;4937165;28;93354;-33
2023/03/30 06:05:38;;;;;;;4.47;3.42;;;11.60;99.90;;;;;;4937194;28;94330;-37
2023/03/30 06:08:04;;;;;;;5.63;4.10;;;11.60;99.90;;;;;;4936782;28;94322;-32
2023/03/30 06:10:30;;;;;;;5.97;3.47;;;11.70;99.90;;;;;;4936949;28;94445;-33
2023/03/30 06:12:56;;;;;;;7.38;4.75;;;11.60;99.90;;;;;;4936732;28;92093;-34
2023/03/30 06:15:22;;;;;;;10.90;5.28;;;11.60;99.90;;;;;;4937702;28;93249;-30
2023/03/30 06:17:47;;;;;;;4.85;4.35;;;11.60;99.90;;;;;;4935818;28;94604;-32
2023/03/30 06:20:13;;;;;;;8.95;4.55;;;11.60;99.90;;;;;;4935594;28;94714;-34
2023/03/30 06:22:40;;;;;;;5.03;3.85;;;11.60;99.90;;;;;;4936664;28;94580;-34
2023/03/30 06:25:07;;;;;;;5.45;3.70;;;11.70;99.90;;;;;;4936739;28;93401;-31
2023/03/30 06:27:34;;;;;;;6.22;4.35;;;11.70;99.90;;;;;;4936557;28;94464;-32
2023/03/30 06:30:00;;;;;;;9.60;5.22;;;11.80;99.90;;;;;;4936677;28;95820;-34
2023/03/30 06:32:26;;;;;;;8.88;4.82;;;11.90;99.90;;;;;;4936185;28;92742;-33
2023/03/30 06:34:52;;;;;;;6.32;4.07;;;11.90;99.90;;;;;;4937300;28;93693;-32
2023/03/30 06:37:19;;;;;;;6.13;4.70;;;11.90;99.90;;;;;;4936295;28;93769;-34
2023/03/30 06:39:45;;;;;;;6.80;3.97;;;12.00;99.90;;;;;;4936629;28;93860;-33
2023/03/30 06:42:11;;;;;;;7.18;3.90;;;12.10;99.90;;;;;;4937054;28;93353;-32
2023/03/30 06:44:36;;;;;;;6.20;4.63;;;12.00;99.90;;;;;;4936827;28;94619;-32
2023/03/30 06:47:04;;;;;;;9.13;4.10;;;12.20;99.90;;;;;;4935624;28;95560;-32
2023/03/30 06:49:30;;;;;;;4.97;3.72;;;12.20;99.90;;;;;;4936704;28;96205;-32
2023/03/30 06:51:55;;;;;;;8.27;3.38;;;12.20;99.90;;;;;;4935739;28;93527;-34
2023/03/30 06:54:21;;;;;;;12.40;4.38;;;12.20;99.90;;;;;;4936296;28;92606;-33
2023/03/30 06:56:48;;;;;;;4.07;3.22;;;12.30;99.90;;;;;;4935387;28;95029;-31
2023/03/30 06:59:14;;;;;;;6.03;3.58;;;12.30;99.90;;;;;;4936194;28;94588;-32
2023/03/30 07:01:41;;;;;;;8.68;3.35;;;12.40;99.90;;;;;;4935956;28;94278;-32
2023/03/30 07:04:07;;;;;;;6.22;3.97;;;12.40;99.90;;;;;;4935925;28;92092;-31
2023/03/30 07:06:33;;;;;;;5.00;4.35;;;12.40;99.90;;;;;;4935192;28;94255;-34
2023/03/30 07:08:59;;;;;;;8.30;3.67;;;12.40;99.90;;;;;;4936427;28;94360;-32
2023/03/30 07:11:25;;;;;;;8.18;3.58;;;12.40;99.90;;;;;;4935438;28;93932;-29
2023/03/30 07:13:50;;;;;;;7.60;3.97;;;12.40;99.90;;;;;;4936244;28;93793;-36
2023/03/30 07:16:16;;;;;;;4.68;4.13;;;12.50;99.90;;;;;;4934850;28;94933;-35
2023/03/30 07:18:42;;;;;;;4.68;3.72;;;12.60;99.90;;;;;;4935651;28;94435;-36
2023/03/30 07:21:08;;;;;;;3.63;3.20;;;12.60;99.90;;;;;;4936397;28;94363;-33
2023/03/30 07:23:34;;;;;;;8.10;4.45;;;12.70;99.90;;;;;;4935887;28;93323;-31
2023/03/30 07:25:59;;;;;;;10.57;4.75;;;12.70;99.90;;;;;;4935841;28;94393;-33
2023/03/30 07:28:25;;;;;;;11.32;3.97;;;12.80;99.90;;;;;;4935340;28;94125;-34
2023/03/30 07:30:51;;;;;;;9.35;3.15;;;12.90;99.90;;;;;;4936042;28;94057;-36
2023/03/30 07:33:17;;;;;;;6.75;3.33;;;12.90;99.90;;;;;;4936446;28;93415;-33
2023/03/30 07:35:44;;;;;;;10.07;3.55;;;13.00;99.90;;;;;;4935584;28;95186;-33
2023/03/30 07:38:11;;;;;;;7.30;4.18;;;12.90;99.90;;;;;;4935741;28;94542;-32
2023/03/30 07:40:37;;;;;;;7.55;4.40;;;12.90;99.90;;;;;;4936017;28;93213;-33
2023/03/30 07:43:03;;;;;;;6.22;3.53;;;13.00;99.90;;;;;;4935131;28;92808;-31
2023/03/30 07:45:28;;;;;;;15.77;4.60;;;12.90;99.90;;;;;;4935147;28;95371;-31
2023/03/30 07:47:54;;;;;;;8.05;4.30;;;12.90;99.90;;;;;;4934387;28;95158;-32
2023/03/30 07:50:20;;;;;;;8.25;3.38;;;12.90;99.90;;;;;;4934622;28;94454;-34
2023/03/30 07:52:46;;;;;;;9.18;4.65;;;12.90;99.90;;;;;;4935765;28;92978;-29
2023/03/30 07:55:12;;;;;;;13.35;5.72;;;12.90;99.90;;;;;;4934500;28;95282;-32
2023/03/30 07:57:37;;;;;;;11.02;4.35;;;12.90;99.90;;;;;;4934952;28;94146;-32
2023/03/30 08:00:09;;;;;;;13.07;3.70;;;12.90;99.90;;;;;;4934711;28;94204;-33
2023/03/30 08:02:35;;;;;;;10.75;3.95;;;12.90;99.90;;;;;;4935216;28;94450;-31
2023/03/30 08:05:01;;;;;;;7.38;3.47;;;12.90;99.90;;;;;;4934573;28;94773;-33
2023/03/30 08:07:27;;;;;;;7.13;4.05;;;12.90;99.90;;;;;;4935044;28;94349;-32
2023/03/30 08:09:53;;;;;;;18.38;4.75;;;12.90;99.90;;;;;;4935571;28;92786;-32
2023/03/30 08:12:19;;;;;;;15.88;4.60;;;12.80;99.90;;;;;;4934913;28;93505;-32
2023/03/30 08:14:45;;;;;;;16.70;5.30;;;12.80;99.90;;;;;;4935222;28;95204;-34
2023/03/30 08:17:11;;;;;;;10.05;4.05;;;12.80;99.90;;;;;;4935013;28;93979;-34
2023/03/30 08:19:36;;;;;;;11.68;3.90;;;12.70;99.90;;;;;;4935482;28;93067;-35
2023/03/30 08:22:02;;;;;;;15.05;4.20;;;12.70;99.90;;;;;;4935016;28;93040;-33
2023/03/30 08:24:28;;;;;;;13.45;5.60;;;12.70;99.90;;;;;;4933675;28;96360;-33
2023/03/30 08:26:54;;;;;;;10.63;5.18;;;12.60;99.90;;;;;;4934824;28;95498;-29
2023/03/30 08:29:20;;;;;;;8.38;4.50;;;12.40;99.90;;;;;;4938099;28;94122;-29
2023/03/30 08:31:46;;;;;;;17.55;6.35;;;12.30;99.90;;;;;;4938514;28;94660;-30
2023/03/30 08:34:12;;;;;;;16.80;6.32;;;12.10;99.90;;;;;;4938028;28;94709;-33
2023/03/30 08:36:38;;;;;;;13.05;5.50;;;12.00;99.90;;;;;;4938565;28;94898;-32
2023/03/30 08:39:04;;;;;;;22.50;6.07;;;12.10;99.90;;;;;;4938438;28;92639;-32
2023/03/30 08:41:42;;;;;;;9.38;5.18;;;12.00;99.90;;;;;;4937873;28;94022;-32
2023/03/30 08:44:34;;;;;;;14.55;6.43;;;12.00;99.90;;;;;;4937894;28;95111;-32
2023/03/30 08:47:02;;;;;;;17.98;6.65;;;12.10;99.90;;;;;;4929594;28;94840;-30
2023/03/30 08:49:28;;;;;;;;;;;12.20;99.90;;;;;;4938409;28;95421;-32
2023/03/30 08:51:55;;;;;;;22.92;7.05;;;12.20;99.90;;;;;;4938495;28;93049;-31
2023/03/30 08:54:21;;;;;;;19.33;7.55;;;12.20;99.90;;;;;;4938332;28;93474;-30
2023/03/30 08:57:28;;;;;;;11.68;5.22;;;12.10;99.90;;;;;;4937366;28;94516;-30
2023/03/30 09:00:18;;;;;;;12.90;5.53;;;12.00;99.90;;;;;;4904778;28;94587;-32
2023/03/30 09:02:48;;;;;;;16.45;5.53;;;11.80;99.90;;;;;;4937714;28;94124;-35
2023/03/30 09:05:26;;;;;;;19.15;5.80;;;11.80;99.90;;;;;;4938094;28;94667;-30
2023/03/30 09:08:00;;;;;;;15.98;5.28;;;11.80;99.90;;;;;;4938078;28;94857;-31
2023/03/30 09:10:30;;;;;;;12.95;5.40;;;11.70;99.90;;;;;;4937960;28;94140;-34
2023/03/30 09:12:59;;;;;;;16.20;6.47;;;11.80;99.90;;;;;;4937390;28;94663;-35
2023/03/30 09:15:32;;;;;;;15.75;5.70;;;11.90;99.90;;;;;;4937159;28;95633;-32
2023/03/30 09:18:00;;;;;;;12.93;5.80;;;12.00;99.90;;;;;;4937033;28;95381;-31
2023/03/30 09:20:28;;;;;;;15.75;6.00;;;12.40;99.90;;;;;;4937970;28;92962;-32
2023/03/30 09:22:57;;;;;;;13.38;4.93;;;12.60;99.90;;;;;;4937569;28;93967;-32
2023/03/30 09:25:46;;;;;;;16.42;5.75;;;13.00;99.90;;;;;;4937941;28;93090;-35
2023/03/30 09:28:21;;;;;;;13.20;5.38;;;13.30;99.90;;;;;;4937726;28;93999;-32
2023/03/30 09:31:28;;;;;;;18.77;5.28;;;13.60;99.90;;;;;;4937996;28;93333;-31
2023/03/30 09:34:05;;;;;;;14.83;5.80;;;13.60;99.90;;;;;;4937404;28;92751;-33
2023/03/30 09:36:40;;;;;;;13.70;5.20;;;14.00;99.90;;;;;;4936949;28;94339;-30
2023/03/30 09:39:20;;;;;;;13.38;4.95;;;14.00;99.90;;;;;;4936883;28;95153;-33
2023/03/30 09:42:12;;;;;;;17.20;4.97;;;14.10;99.90;;;;;;4937416;28;94356;-34
2023/03/30 09:44:40;;;;;;;10.40;4.22;;;14.00;99.90;;;;;;4937540;28;93099;-30
2023/03/30 09:47:23;;;;;;;18.85;6.00;;;13.70;99.90;;;;;;4937045;28;94874;-31
2023/03/30 09:49:55;;;;;;;21.25;4.63;;;13.50;99.90;;;;;;4937117;28;94565;-33
2023/03/30 09:52:24;;;;;;;16.10;5.97;;;13.40;99.90;;;;;;4937130;28;93184;-32
2023/03/30 09:54:50;;;;;;;17.80;4.78;;;13.60;99.90;;;;;;4937041;28;93350;-32
2023/03/30 09:57:29;;;;;;;6.60;4.60;;;13.80;99.90;;;;;;4936194;28;95153;-31
2023/03/30 09:59:56;;;;;;;11.95;4.45;;;14.20;99.90;;;;;;4937754;28;94957;-31
2023/03/30 10:02:29;;;;;;;11.00;4.95;;;14.50;99.90;;;;;;4936185;28;92318;-33
2023/03/30 10:04:59;;;;;;;17.38;5.13;;;14.70;99.90;;;;;;4937404;28;94689;-30
2023/03/30 10:07:41;;;;;;;10.88;3.63;;;14.70;99.90;;;;;;4934738;28;95740;-30
2023/03/30 10:10:13;;;;;;;9.18;3.45;;;14.50;99.90;;;;;;4936785;28;94538;-34
2023/03/30 10:12:39;;;;;;;17.83;3.05;;;14.20;99.90;;;;;;4937154;28;94231;-34
2023/03/30 10:15:11;;;;;;;23.95;3.83;;;14.20;99.90;;;;;;4937692;28;94226;-32
2023/03/30 10:17:40;;;;;;;16.95;3.55;;;14.00;99.90;;;;;;4936085;28;94752;-33
2023/03/30 10:20:29;;;;;;;10.13;3.45;;;13.80;99.90;;;;;;4936476;28;94988;-34
2023/03/30 10:23:01;;;;;;;13.52;3.75;;;13.70;99.90;;;;;;4936609;28;92153;-29
2023/03/30 10:25:30;;;;;;;9.15;4.03;;;13.70;99.90;;;;;;4935969;28;91507;-30
2023/03/30 10:27:57;;;;;;;;;;;13.60;99.90;;;;;;4934493;28;94236;-32
2023/03/30 10:30:26;;;;;;;14.48;3.15;;;13.50;99.90;;;;;;4937594;28;94171;-32
2023/03/30 10:32:54;;;;;;;8.52;3.17;;;13.50;99.90;;;;;;4936737;28;93085;-29
2023/03/30 10:35:23;;;;;;;11.55;3.22;;;13.50;99.90;;;;;;4937421;28;93232;-30
2023/03/30 10:37:53;;;;;;;21.63;2.80;;;13.60;99.90;;;;;;4936782;28;93992;-31
2023/03/30 10:40:19;;;;;;;10.25;3.53;;;13.80;99.90;;;;;;4936307;28;94592;-31
2023/03/30 10:42:46;;;;;;;7.28;2.50;;;14.00;99.90;;;;;;4936312;28;92737;-31
2023/03/30 10:45:19;;;;;;;10.98;3.55;;;13.90;99.90;;;;;;4936401;28;92119;-32
2023/03/30 10:48:29;;;;;;;11.63;3.47;;;13.90;99.90;;;;;;4936399;28;94847;-30
2023/03/30 10:51:14;;;;;;;8.32;2.65;;;13.80;99.90;;;;;;4873956;28;94652;-31
2023/03/30 10:53:59;;;;;;;10.07;2.85;;;13.80;99.90;;;;;;4934678;28;93367;-34
2023/03/30 10:56:45;;;;;;;13.70;3.85;;;13.90;99.90;;;;;;4935216;28;92711;-31
2023/03/30 10:59:30;;;;;;;3.80;2.75;;;14.00;99.90;;;;;;4935630;28;95169;-29
2023/03/30 11:02:09;;;;;;;13.60;3.78;;;14.00;99.90;;;;;;4936168;28;95559;-31
2023/03/30 11:04:48;;;;;;;10.38;3.80;;;13.90;99.90;;;;;;4936012;28;94859;-32
2023/03/30 11:07:34;;;;;;;10.35;3.70;;;13.90;99.90;;;;;;4938233;28;93208;-31
2023/03/30 11:10:19;;;;;;;8.35;3.05;;;13.80;99.90;;;;;;4935139;28;94990;-31
2023/03/30 11:12:53;;;;;;;7.47;2.95;;;13.80;99.90;;;;;;4936054;28;94529;-33
2023/03/30 11:15:30;;;;;;;14.30;3.08;;;13.90;99.90;;;;;;4935962;28;94628;-33
2023/03/30 11:18:20;;;;;;;14.38;3.47;;;13.90;99.90;;;;;;4935425;28;92492;-31
2023/03/30 11:21:07;;;;;;;6.20;2.17;;;14.00;99.90;;;;;;4927690;28;94294;-33
2023/03/30 11:23:41;;;;;;;13.38;2.60;;;14.10;99.90;;;;;;4935628;28;94829;-32
2023/03/30 11:26:14;;;;;;;6.20;2.83;;;14.30;99.90;;;;;;4935047;28;94233;-31
2023/03/30 11:29:04;;;;;;;9.20;3.53;;;14.40;99.90;;;;;;4935545;28;94347;-35
2023/03/30 11:32:13;;;;;;;5.82;2.65;;;14.50;99.90;;;;;;4935357;28;96113;-29
2023/03/30 11:35:00;;;;;;;6.93;2.30;;;14.40;99.90;;;;;;4937329;28;94135;-34
2023/03/30 11:37:45;;;;;;;10.45;3.45;;;14.50;99.90;;;;;;4934531;28;92181;-32
2023/03/30 11:40:26;;;;;;;13.48;3.15;;;14.60;99.90;;;;;;4935259;28;92647;-31
2023/03/30 11:42:52;;;;;;;10.43;3.35;;;14.50;99.90;;;;;;4934854;28;94141;-30
2023/03/30 11:45:42;;;;;;;10.30;3.95;;;14.60;99.90;;;;;;4936219;28;94431;-31
2023/03/30 11:48:31;;;;;;;7.88;3.50;;;14.50;99.90;;;;;;4935899;28;92706;-33
2023/03/30 11:51:37;;;;;;;10.48;3.20;;;14.40;99.90;;;;;;4915467;28;93981;-32
2023/03/30 11:54:39;;;;;;;7.07;2.83;;;14.30;99.90;;;;;;4934366;28;95803;-33
2023/03/30 12:00:24;;;;;;;8.63;2.88;;;14.70;99.90;;;;;;4875202;28;93094;-33
2023/03/30 12:02:56;;;;;;;9.25;4.07;;;14.90;99.90;;;;;;4879031;28;94165;-30
2023/03/30 12:05:29;;;;;;;15.43;4.22;;;15.00;99.90;;;;;;4880327;28;93430;-31
2023/03/30 12:08:19;;;;;;;7.97;3.55;;;15.10;99.90;;;;;;4880368;28;94214;-34
2023/03/30 12:10:53;;;;;;;11.02;4.80;;;15.00;99.90;;;;;;4880749;28;94090;-31
2023/03/30 12:13:20;;;;;;;17.45;4.63;;;15.20;99.90;;;;;;4881673;28;93801;-32
2023/03/30 12:15:54;;;;;;;13.57;4.00;;;15.20;99.90;;;;;;4880001;28;94794;-33
2023/03/30 12:18:59;;;;;;;6.70;3.50;;;15.40;99.90;;;;;;4880226;28;94753;-34
2023/03/30 12:21:32;;;;;;;12.00;3.95;;;15.40;99.90;;;;;;4868379;28;95465;-32
2023/03/30 12:24:16;;;;;;;10.35;4.75;;;15.70;99.90;;;;;;4880834;28;94241;-30
2023/03/30 12:26:42;;;;;;;14.02;4.65;;;15.80;99.90;;;;;;4880528;28;95854;-32
2023/03/30 12:29:14;;;;;;;9.18;3.70;;;15.80;99.90;;;;;;4879287;28;94592;-34
2023/03/30 12:31:54;;;;;;;8.77;3.90;;;15.70;99.90;;;;;;4880260;28;93251;-33
2023/03/30 12:34:22;;;;;;;18.80;4.22;;;15.70;99.90;;;;;;4879828;28;92647;-33
2023/03/30 12:36:51;;;;;;;11.32;4.72;;;15.60;99.90;;;;;;4880445;28;94695;-32
2023/03/30 12:39:24;;;;;;;12.95;5.40;;;15.70;99.90;;;;;;4880712;28;94567;-33
2023/03/30 12:42:09;;;;;;;15.20;4.07;;;15.80;99.90;;;;;;4881024;28;93160;-32
2023/03/30 12:44:43;;;;;;;14.85;4.55;;;16.00;99.90;;;;;;4880071;28;94348;-31
2023/03/30 12:47:32;;;;;;;12.63;3.80;;;16.10;99.90;;;;;;4879416;28;95476;-32
2023/03/30 12:50:26;;;;;;;17.52;3.83;;;16.20;99.90;;;;;;4878900;28;97523;-31
2023/03/30 12:53:10;;;;;;;14.85;4.38;;;16.10;99.90;;;;;;4879994;28;94227;-33
2023/03/30 12:55:39;;;;;;;9.38;4.10;;;15.80;99.90;;;;;;4880538;28;94492;-30
2023/03/30 12:58:16;;;;;;;16.35;5.05;;;15.70;99.90;;;;;;4879210;28;95188;-34
2023/03/30 13:01:26;;;;;;;14.10;4.45;;;15.60;99.90;;;;;;4880350;28;94743;-31
2023/03/30 13:04:00;;;;;;;17.73;5.55;;;15.20;99.90;;;;;;4880367;28;93519;-31
2023/03/30 13:06:47;;;;;;;9.68;3.97;;;14.80;99.90;;;;;;4879592;28;92334;-32
2023/03/30 13:09:19;;;;;;;15.03;4.47;;;14.90;99.90;;;;;;4881051;28;94946;-31
2023/03/30 13:11:46;;;;;;;12.80;4.38;;;15.10;99.90;;;;;;4879692;28;94598;-31